Time;durP1;ratioP1;P1;durP2;ratioP2;P2;SDS_P1;SDS_P2;PMS_P1;PMS_P2;Temp;Humidity;BMP_temperature;BMP_pressure;BME280_temperature;BME280_humidity;BME280_pressure;Samples;Min_cycle;Max_cycle;Signal;HPM_P1;HPM_P2
2023/10/13 00:02:01;;;;;;;6.93;4.53;;;20.40;94.20;;;;;;5047170;28;20598;-88
2023/10/13 00:04:27;;;;;;;6.70;4.75;;;21.10;94.70;;;;;;5052481;28;20216;-88
2023/10/13 00:06:53;;;;;;;5.85;4.65;;;20.80;95.00;;;;;;5042417;28;20190;-88
2023/10/13 00:09:25;;;;;;;5.10;4.55;;;19.90;94.50;;;;;;5052002;28;20645;-88
2023/10/13 00:11:53;;;;;;;7.50;4.68;;;19.10;95.00;;;;;;5049085;28;20192;-88
2023/10/13 00:14:30;;;;;;;5.57;4.22;;;19.20;94.50;;;;;;5061113;28;20217;-87
2023/10/13 00:17:05;;;;;;;8.27;4.25;;;20.10;95.10;;;;;;5050288;28;20210;-88
2023/10/13 00:19:46;;;;;;;5.50;4.65;;;19.60;95.80;;;;;;5047536;28;20272;-88
2023/10/13 00:22:15;;;;;;;5.68;4.20;;;21.00;96.20;;;;;;5046103;28;20248;-88
2023/10/13 00:24:45;;;;;;;6.70;4.32;;;20.10;95.90;;;;;;5048325;28;20296;-88
2023/10/13 00:27:36;;;;;;;4.60;4.20;;;19.90;96.00;;;;;;5045126;28;20654;-88
2023/10/13 00:30:22;;;;;;;4.78;3.97;;;18.80;95.80;;;;;;5049861;28;20251;-88
2023/10/13 00:32:56;;;;;;;6.55;4.55;;;18.40;95.40;;;;;;5029127;28;20216;-88
2023/10/13 00:35:35;;;;;;;6.40;4.47;;;17.70;95.20;;;;;;5046340;28;20681;-88
2023/10/13 00:38:04;;;;;;;9.77;4.95;;;20.40;96.90;;;;;;5049840;28;20189;-88
2023/10/13 00:43:28;;;;;;;4.60;4.20;;;20.50;97.40;;;;;;5049894;28;20201;-87
2023/10/13 00:45:43;;;;;;;7.70;4.18;;;20.20;97.10;;;;;;5044934;28;20674;-88
2023/10/13 00:48:13;;;;;;;6.25;4.68;;;19.60;97.00;;;;;;5045635;28;20643;-88
2023/10/13 00:50:40;;;;;;;4.30;3.90;;;19.70;97.10;;;;;;5050330;28;20200;-87
2023/10/13 00:53:07;;;;;;;6.22;4.75;;;18.30;96.90;;;;;;5047479;28;20198;-88
2023/10/13 00:55:34;;;;;;;5.15;4.40;;;19.30;97.30;;;;;;5046710;28;20182;-88
2023/10/13 00:58:03;;;;;;;7.10;4.93;;;18.00;96.50;;;;;;5044077;28;20182;-88
2023/10/13 01:00:46;;;;;;;6.47;4.50;;;18.00;96.90;;;;;;5046904;28;20213;-88
2023/10/13 01:03:12;;;;;;;5.05;3.85;;;17.00;96.60;;;;;;5049760;28;20743;-86
2023/10/13 01:05:39;;;;;;;5.78;4.40;;;17.70;96.80;;;;;;5044939;28;20220;-88
2023/10/13 01:08:10;;;;;;;5.63;4.32;;;17.80;96.30;;;;;;5046902;28;20178;-87
2023/10/13 01:10:37;;;;;;;7.13;4.57;;;17.90;96.70;;;;;;5046274;28;20181;-87
2023/10/13 01:13:03;;;;;;;5.70;3.90;;;19.20;97.50;;;;;;5038835;28;20221;-88
2023/10/13 01:15:33;;;;;;;6.63;4.00;;;17.80;96.80;;;;;;5042201;28;20658;-88
2023/10/13 01:18:11;;;;;;;5.75;3.50;;;18.70;97.00;;;;;;5043465;28;20268;-88
2023/10/13 01:20:45;;;;;;;7.13;4.25;;;19.00;97.30;;;;;;5049309;28;20254;-88
2023/10/13 01:23:18;;;;;;;5.38;3.80;;;18.80;97.20;;;;;;5045542;28;20743;-88
2023/10/13 01:25:44;;;;;;;4.40;4.00;;;18.00;96.90;;;;;;5047208;28;20245;-88
2023/10/13 01:28:15;;;;;;;5.75;3.60;;;18.40;96.70;;;;;;5058370;28;20256;-87
2023/10/13 01:30:42;;;;;;;5.65;4.63;;;19.00;98.00;;;;;;5042671;28;20204;-88
2023/10/13 01:33:10;;;;;;;4.25;3.85;;;17.50;96.50;;;;;;5046681;28;20282;-88
2023/10/13 01:35:41;;;;;;;4.72;3.80;;;18.20;96.80;;;;;;5042542;28;20186;-88
2023/10/13 01:38:08;;;;;;;5.90;3.92;;;17.40;96.20;;;;;;5048385;28;20191;-88
2023/10/13 01:40:34;;;;;;;5.63;4.30;;;18.40;96.80;;;;;;5045939;28;20204;-88
2023/10/13 01:43:01;;;;;;;4.75;4.18;;;19.00;97.40;;;;;;5048175;28;20201;-88
2023/10/13 01:45:29;;;;;;;6.10;4.00;;;17.40;96.50;;;;;;5040739;28;20205;-88
2023/10/13 01:47:56;;;;;;;4.88;4.05;;;18.80;97.30;;;;;;5040832;28;20178;-88
2023/10/13 01:50:29;;;;;;;7.38;4.75;;;17.10;96.50;;;;;;5046648;28;20651;-88
2023/10/13 01:55:59;;;;;;;5.47;3.90;;;18.80;97.10;;;;;;5045816;28;20234;-88
2023/10/13 01:58:28;;;;;;;5.03;3.90;;;17.90;96.70;;;;;;5039021;28;20289;-88
2023/10/13 02:00:56;;;;;;;6.30;4.60;;;18.00;97.10;;;;;;5044380;28;20272;-87
2023/10/13 02:03:21;;;;;;;5.32;4.22;;;17.10;96.70;;;;;;5052542;28;20216;-88
2023/10/13 02:05:49;;;;;;;7.70;4.50;;;17.30;96.20;;;;;;5044975;28;20276;-88
2023/10/13 02:08:24;;;;;;;5.15;4.03;;;18.50;97.40;;;;;;5041923;28;20215;-88
2023/10/13 02:10:54;;;;;;;4.00;3.60;;;17.40;96.90;;;;;;5045253;28;20653;-88
2023/10/13 02:13:22;;;;;;;4.60;3.80;;;17.20;96.80;;;;;;5048065;28;20689;-88
2023/10/13 02:15:51;;;;;;;5.80;3.97;;;16.90;96.60;;;;;;5050581;28;20185;-87
2023/10/13 02:19:04;;;;;;;5.07;3.55;;;18.60;97.40;;;;;;5048526;28;20200;-88
2023/10/13 02:21:14;;;;;;;4.90;4.00;;;19.30;98.40;;;;;;5051356;28;20247;-88
2023/10/13 02:23:59;;;;;;;6.07;4.50;;;18.50;97.90;;;;;;5049877;28;20204;-87
2023/10/13 02:26:31;;;;;;;6.90;4.55;;;18.20;97.80;;;;;;5048064;28;20300;-87
2023/10/13 02:29:07;;;;;;;5.10;4.63;;;17.20;97.20;;;;;;5059877;28;20177;-87
2023/10/13 02:31:37;;;;;;;4.82;4.15;;;17.60;97.40;;;;;;5068837;28;20196;-88
2023/10/13 02:34:07;;;;;;;8.70;4.55;;;17.70;97.50;;;;;;5047482;28;20210;-88
2023/10/13 02:36:37;;;;;;;5.32;3.85;;;18.80;98.00;;;;;;5049586;28;20277;-87
2023/10/13 02:39:13;;;;;;;6.28;4.25;;;17.00;97.40;;;;;;5042999;28;20182;-88
2023/10/13 02:41:41;;;;;;;4.25;3.85;;;17.30;97.60;;;;;;5050194;28;20227;-87
2023/10/13 02:44:10;;;;;;;5.60;4.82;;;17.60;98.00;;;;;;5044573;28;20212;-88
2023/10/13 02:46:36;;;;;;;5.53;5.03;;;18.50;98.50;;;;;;5044425;28;20267;-87
2023/10/13 02:49:10;;;;;;;7.57;4.82;;;17.00;97.90;;;;;;5050683;28;20181;-88
2023/10/13 02:51:36;;;;;;;8.98;5.53;;;16.70;98.10;;;;;;5044002;28;20699;-87
2023/10/13 02:54:09;;;;;;;4.70;3.85;;;17.30;97.80;;;;;;5049781;28;20288;-88
2023/10/13 02:56:35;;;;;;;5.00;4.28;;;16.60;97.90;;;;;;5047288;28;20230;-87
2023/10/13 02:59:04;;;;;;;6.50;4.23;;;17.20;98.50;;;;;;5051583;28;20182;-87
2023/10/13 03:01:34;;;;;;;8.00;3.95;;;18.40;99.30;;;;;;5045563;28;20465;-87
2023/10/13 03:04:01;;;;;;;9.55;4.60;;;17.80;98.50;;;;;;5049558;28;20205;-88
2023/10/13 03:06:33;;;;;;;4.88;4.35;;;15.80;97.30;;;;;;5051463;28;20205;-88
2023/10/13 03:09:13;;;;;;;5.93;4.53;;;18.00;98.60;;;;;;5048093;28;20208;-88
2023/10/13 03:11:42;;;;;;;6.38;4.22;;;18.40;98.70;;;;;;5047266;28;20268;-87
2023/10/13 03:14:09;;;;;;;5.13;4.45;;;18.00;98.80;;;;;;5072675;28;20224;-88
2023/10/13 03:16:34;;;;;;;4.97;3.90;;;16.70;98.00;;;;;;5075557;28;20201;-87
2023/10/13 03:19:00;;;;;;;6.07;4.33;;;16.10;98.80;;;;;;5069015;28;20182;-88
2023/10/13 03:21:29;;;;;;;8.40;4.60;;;;;;;;;;5065431;28;20221;-88
2023/10/13 03:24:07;;;;;;;5.38;4.15;;;16.60;98.30;;;;;;5059054;28;20288;-88
2023/10/13 03:26:37;;;;;;;8.13;4.88;;;17.70;99.30;;;;;;5055967;28;20773;-88
2023/10/13 03:29:07;;;;;;;4.88;3.85;;;17.40;99.50;;;;;;5034386;28;20184;-88
2023/10/13 03:31:36;;;;;;;6.45;4.18;;;16.80;99.30;;;;;;5054042;28;20339;-89
2023/10/13 03:34:04;;;;;;;6.65;4.63;;;16.60;99.10;;;;;;5050843;28;20197;-89
2023/10/13 03:39:14;;;;;;;6.63;4.90;;;16.10;99.10;;;;;;5046412;28;20237;-88
2023/10/13 03:41:40;;;;;;;5.53;4.88;;;15.70;98.80;;;;;;5048196;28;20181;-89
2023/10/13 03:44:17;;;;;;;6.40;4.10;;;17.00;99.90;;;;;;5045461;28;20259;-88
2023/10/13 03:46:47;;;;;;;6.55;4.70;;;16.30;99.20;;;;;;5043637;28;20321;-88
2023/10/13 03:49:21;;;;;;;6.10;4.50;;;18.30;99.90;;;;;;5047055;28;20224;-88
2023/10/13 03:51:47;;;;;;;5.05;3.85;;;16.10;98.70;;;;;;5046803;28;20268;-89
2023/10/13 03:54:16;;;;;;;7.30;4.50;;;18.90;99.90;;;;;;5050896;28;20237;-89
2023/10/13 03:56:44;;;;;;;7.65;4.80;;;17.50;99.60;;;;;;5049736;28;20699;-88
2023/10/13 03:59:18;;;;;;;5.13;4.47;;;16.10;98.70;;;;;;5042732;28;21468;-88
2023/10/13 04:02:02;;;;;;;5.20;4.22;;;17.70;99.70;;;;;;5032154;28;20194;-88
2023/10/13 04:04:34;;;;;;;6.00;4.85;;;18.00;99.90;;;;;;5044139;28;20202;-89
2023/10/13 04:10:09;;;;;;;5.60;4.57;;;17.20;99.60;;;;;;5047871;28;20264;-88
2023/10/13 04:17:40;;;;;;;7.88;4.70;;;16.70;99.60;;;;;;5054164;28;20216;-87
2023/10/13 04:41:45;;;;;;;5.60;4.70;;;16.00;98.90;;;;;;5071689;28;20242;-87
2023/10/13 04:57:35;;;;;;;5.97;4.47;;;16.00;99.40;;;;;;5042764;28;20189;-87
2023/10/13 05:51:43;;;;;;;7.40;4.75;;;16.20;99.90;;;;;;5054291;28;20180;-90
2023/10/13 06:29:58;;;;;;;8.93;5.50;;;17.00;97.30;;;;;;5053688;28;20181;-89
2023/10/13 06:32:26;;;;;;;7.85;5.78;;;17.40;97.10;;;;;;5055172;28;20232;-89
2023/10/13 06:35:05;;;;;;;5.93;5.15;;;17.10;96.80;;;;;;5048415;28;20181;-89
2023/10/13 06:37:32;;;;;;;11.43;5.13;;;17.30;96.70;;;;;;5050020;28;20181;-89
2023/10/13 06:40:22;;;;;;;10.20;4.93;;;17.70;96.70;;;;;;5047950;28;20668;-89
2023/10/13 06:42:48;;;;;;;6.28;5.50;;;17.80;96.70;;;;;;5054113;28;20225;-88
2023/10/13 06:45:16;;;;;;;8.35;5.30;;;17.70;96.50;;;;;;5050218;28;20653;-86
2023/10/13 06:47:45;;;;;;;10.45;5.05;;;18.00;96.60;;;;;;5049216;28;20190;-84
2023/10/13 06:50:15;;;;;;;6.22;5.05;;;17.80;96.20;;;;;;5052075;28;20208;-88
2023/10/13 06:52:44;;;;;;;6.57;5.15;;;17.70;95.90;;;;;;5035099;28;20322;-89
2023/10/13 06:55:58;;;;;;;5.93;5.07;;;18.50;96.00;;;;;;5051823;28;20213;-88
2023/10/13 06:57:59;;;;;;;7.32;5.15;;;18.20;95.80;;;;;;5047804;28;20193;-88
2023/10/13 07:00:29;;;;;;;7.38;4.90;;;17.80;95.50;;;;;;5047480;28;20190;-89
2023/10/13 07:03:08;;;;;;;6.50;5.07;;;17.90;95.50;;;;;;5049920;28;20208;-90
2023/10/13 07:05:38;;;;;;;10.52;5.43;;;18.30;95.60;;;;;;5053300;28;20205;-88
2023/10/13 07:08:06;;;;;;;6.35;4.93;;;18.40;95.60;;;;;;5050125;28;20231;-88
2023/10/13 07:10:35;;;;;;;6.97;5.50;;;18.20;95.10;;;;;;5049759;28;20178;-89
2023/10/13 07:13:04;;;;;;;10.80;4.97;;;18.80;95.20;;;;;;5043936;28;20202;-89
2023/10/13 07:15:30;;;;;;;7.22;4.50;;;18.70;94.40;;;;;;5046039;28;20182;-88
2023/10/13 07:17:59;;;;;;;7.53;5.10;;;19.10;93.40;;;;;;5054280;28;20188;-89
2023/10/13 07:20:33;;;;;;;7.07;4.88;;;19.50;92.40;;;;;;5057923;28;20181;-89
2023/10/13 07:23:03;;;;;;;4.75;4.25;;;19.60;92.10;;;;;;5051856;28;20292;-89
2023/10/13 07:25:32;;;;;;;10.02;4.80;;;19.30;91.40;;;;;;5053712;28;20717;-89
2023/10/13 07:28:03;;;;;;;6.10;4.53;;;19.80;91.30;;;;;;5051436;28;20305;-90
2023/10/13 07:30:31;;;;;;;4.82;3.80;;;19.50;90.60;;;;;;5051829;28;20184;-91
2023/10/13 07:32:59;;;;;;;5.82;4.35;;;20.30;90.80;;;;;;5055905;28;20743;-89
2023/10/13 07:35:26;;;;;;;5.60;4.25;;;20.40;90.20;;;;;;5048343;28;20258;-90
2023/10/13 07:37:53;;;;;;;7.80;4.00;;;20.50;88.70;;;;;;5052086;28;20182;-90
2023/10/13 07:41:07;;;;;;;5.35;3.67;;;20.30;87.80;;;;;;5061712;28;20196;-90
2023/10/13 07:43:11;;;;;;;8.20;4.80;;;20.00;86.10;;;;;;5069895;28;20227;-89
2023/10/13 07:45:38;;;;;;;4.85;3.30;;;20.20;85.60;;;;;;5062210;28;20213;-88
2023/10/13 07:48:11;;;;;;;6.22;3.95;;;20.40;84.90;;;;;;5054712;28;20185;-87
2023/10/13 07:50:40;;;;;;;6.22;4.10;;;20.50;83.70;;;;;;5049054;28;20658;-87
2023/10/13 07:53:18;;;;;;;5.03;3.70;;;20.60;83.00;;;;;;5047307;28;20217;-87
2023/10/13 07:55:46;;;;;;;4.47;3.30;;;21.00;83.50;;;;;;5049486;28;20189;-88
2023/10/13 07:58:13;;;;;;;6.00;3.58;;;21.70;82.10;;;;;;5049656;28;20185;-88
2023/10/13 08:08:39;;;;;;;5.97;3.60;;;21.50;79.10;;;;;;5063182;28;20185;-87
2023/10/13 08:11:11;;;;;;;6.10;3.77;;;21.40;78.50;;;;;;5048591;28;20177;-87
2023/10/13 08:13:38;;;;;;;5.20;3.83;;;21.80;78.60;;;;;;5048846;28;20465;-87
2023/10/13 08:16:20;;;;;;;5.77;3.80;;;22.00;78.20;;;;;;5069394;28;20448;-88
2023/10/13 08:18:49;;;;;;;9.47;3.73;;;21.70;77.20;;;;;;5047228;28;20436;-88
2023/10/13 08:21:22;;;;;;;5.77;3.70;;;22.30;77.60;;;;;;5045667;28;20470;-88
2023/10/13 08:32:13;;;;;;;5.13;3.60;;;22.30;75.10;;;;;;5046895;28;20470;-88
2023/10/13 08:35:23;;;;;;;8.73;4.37;;;23.00;74.40;;;;;;5044470;28;20803;-88
2023/10/13 08:45:53;;;;;;;7.10;3.30;;;23.10;71.30;;;;;;5054435;28;20499;-89
2023/10/13 08:48:12;;;;;;;7.73;3.77;;;23.20;70.60;;;;;;5063036;28;20453;-89
2023/10/13 08:53:31;;;;;;;5.70;3.27;;;23.30;71.60;;;;;;5051892;28;20479;-89
2023/10/13 09:01:37;;;;;;;9.03;3.83;;;23.60;68.20;;;;;;5064107;28;21090;-89
2023/10/13 09:04:20;;;;;;;6.23;3.67;;;23.70;67.70;;;;;;5060064;28;20464;-90
2023/10/13 09:07:35;;;;;;;5.47;3.17;;;24.20;67.50;;;;;;5052384;28;20475;-88
2023/10/13 09:15:23;;;;;;;5.70;3.50;;;24.30;64.10;;;;;;5044680;28;20475;-88
2023/10/13 09:25:34;;;;;;;4.43;3.37;;;25.00;61.30;;;;;;5043248;28;20475;-88
2023/10/13 09:28:14;;;;;;;5.30;3.47;;;24.80;60.30;;;;;;5047919;28;20943;-88
2023/10/13 09:30:58;;;;;;;4.53;4.03;;;24.90;60.50;;;;;;5049646;28;20441;-88
2023/10/13 09:33:36;;;;;;;4.70;3.30;;;25.10;60.40;;;;;;5052709;28;20460;-88
2023/10/13 09:36:04;;;;;;;5.27;2.97;;;25.20;59.30;;;;;;5044915;28;20447;-88
2023/10/13 09:38:33;;;;;;;6.20;3.30;;;25.30;58.60;;;;;;5068432;28;20459;-88
2023/10/13 09:41:17;;;;;;;4.20;3.07;;;25.60;57.90;;;;;;5064741;28;20445;-88
2023/10/13 09:43:46;;;;;;;6.80;3.07;;;26.10;58.10;;;;;;5050490;28;20541;-88
2023/10/13 09:46:18;;;;;;;7.90;3.97;;;26.10;58.30;;;;;;5047984;28;20894;-89
2023/10/13 09:48:52;;;;;;;4.40;3.20;;;25.90;57.50;;;;;;5047453;28;20447;-88
2023/10/13 09:51:21;;;;;;;8.60;3.80;;;25.90;56.90;;;;;;5043855;28;20579;-89
2023/10/13 09:54:27;;;;;;;6.20;3.90;;;26.10;56.70;;;;;;5047808;28;20460;-89
2023/10/13 09:57:12;;;;;;;5.03;3.87;;;26.00;56.40;;;;;;5055778;28;20474;-89
2023/10/13 09:59:52;;;;;;;6.33;3.20;;;26.30;56.30;;;;;;5044824;28;20526;-89
2023/10/13 10:02:25;;;;;;;7.53;2.80;;;26.40;56.40;;;;;;5046797;28;20564;-88
2023/10/13 10:07:58;;;;;;;10.60;3.60;;;26.80;54.90;;;;;;5046924;28;20450;-88
2023/10/13 10:10:42;;;;;;;5.10;3.00;;;26.60;54.60;;;;;;5050190;28;20456;-89
2023/10/13 10:13:35;;;;;;;5.67;3.20;;;26.70;54.10;;;;;;5045231;28;20525;-89
2023/10/13 10:16:14;;;;;;;4.60;3.17;;;27.10;54.30;;;;;;5054721;28;20504;-88
2023/10/13 10:18:40;;;;;;;5.10;3.00;;;26.80;54.00;;;;;;5047069;28;20522;-89
2023/10/13 10:21:10;;;;;;;5.80;3.10;;;27.00;54.20;;;;;;5040581;28;20449;-88
2023/10/13 10:23:38;;;;;;;6.03;4.27;;;27.50;53.60;;;;;;5045296;28;20472;-89
2023/10/13 10:26:13;;;;;;;4.23;3.20;;;27.40;53.40;;;;;;5046632;28;20480;-88
2023/10/13 10:28:42;;;;;;;9.53;3.63;;;27.50;52.20;;;;;;5050107;28;20465;-88
2023/10/13 10:31:19;;;;;;;7.77;3.83;;;27.50;52.10;;;;;;5047515;28;20448;-88
2023/10/13 10:33:50;;;;;;;5.40;3.03;;;27.90;51.30;;;;;;5053814;28;20460;-88
2023/10/13 10:36:29;;;;;;;6.17;3.43;;;27.70;51.20;;;;;;5055031;28;20547;-89
2023/10/13 10:38:59;;;;;;;3.43;3.13;;;27.80;51.20;;;;;;5038881;28;20980;-89
2023/10/13 10:41:39;;;;;;;5.30;3.50;;;28.60;50.20;;;;;;5049083;28;20440;-88
2023/10/13 10:44:16;;;;;;;7.57;3.97;;;28.20;50.60;;;;;;5043976;28;20470;-89
2023/10/13 10:46:51;;;;;;;6.57;3.60;;;28.40;50.70;;;;;;5047619;28;20466;-89
2023/10/13 10:49:27;;;;;;;5.50;3.23;;;28.60;50.30;;;;;;5050820;28;20438;-88
2023/10/13 10:52:00;;;;;;;7.93;4.47;;;28.20;49.90;;;;;;5052729;28;20584;-89
2023/10/13 10:54:30;;;;;;;4.50;3.27;;;29.50;49.40;;;;;;5049876;28;20512;-89
2023/10/13 10:57:42;;;;;;;6.07;4.43;;;31.00;47.20;;;;;;5052218;28;21059;-89
2023/10/13 10:59:46;;;;;;;5.03;4.07;;;32.40;44.50;;;;;;5052059;28;20444;-88
2023/10/13 11:02:25;;;;;;;4.73;3.53;;;32.90;42.80;;;;;;5048299;28;21022;-89
2023/10/13 11:04:50;;;;;;;7.23;4.80;;;32.40;41.80;;;;;;5053350;28;20482;-88
2023/10/13 11:07:25;;;;;;;5.57;3.93;;;31.70;42.60;;;;;;5061993;28;20502;-88
2023/10/13 11:10:07;;;;;;;7.67;3.90;;;31.30;42.90;;;;;;5051057;28;20184;-88
2023/10/13 11:12:34;;;;;;;7.17;3.90;;;31.30;42.80;;;;;;5048775;28;21143;-87
2023/10/13 11:15:12;;;;;;;4.77;3.73;;;31.30;42.40;;;;;;5045092;28;20451;-86
2023/10/13 11:17:51;;;;;;;7.87;3.90;;;30.90;43.00;;;;;;5045342;28;20472;-87
2023/10/13 11:20:25;;;;;;;7.13;3.10;;;30.60;42.80;;;;;;5049335;28;20437;-89
2023/10/13 11:22:52;;;;;;;6.17;3.40;;;30.20;43.40;;;;;;5048808;28;20543;-88
2023/10/13 11:25:30;;;;;;;8.80;4.20;;;30.10;43.50;;;;;;5047719;28;20515;-88
2023/10/13 11:28:09;;;;;;;6.00;3.77;;;30.10;43.80;;;;;;5046894;28;20524;-87
2023/10/13 11:33:07;;;;;;;4.90;3.90;;;29.80;44.20;;;;;;5060547;28;20976;-89
2023/10/13 11:35:56;;;;;;;3.23;2.90;;;29.70;44.30;;;;;;5050715;28;20460;-89
2023/10/13 11:38:26;;;;;;;9.83;4.07;;;29.60;44.70;;;;;;5051521;28;20470;-88
2023/10/13 11:43:46;;;;;;;6.13;3.77;;;28.90;45.10;;;;;;5050736;28;20466;-88
2023/10/13 11:46:16;;;;;;;5.30;3.63;;;28.90;45.20;;;;;;5060513;28;20537;-88
2023/10/13 11:48:54;;;;;;;7.03;4.17;;;28.70;45.50;;;;;;5066490;28;20471;-87
2023/10/13 11:51:24;;;;;;;4.43;3.50;;;28.50;45.70;;;;;;5063829;28;20473;-88
2023/10/13 11:53:53;;;;;;;4.70;3.30;;;28.60;45.50;;;;;;5050260;28;20462;-88
2023/10/13 11:56:20;;;;;;;5.70;4.00;;;28.50;45.60;;;;;;5065236;28;20453;-88
2023/10/13 11:58:48;;;;;;;7.17;3.30;;;28.60;46.10;;;;;;5032629;28;20445;-88
2023/10/13 12:11:41;;;;;;;5.30;3.70;;;28.40;45.90;;;;;;5047487;28;20433;-90
2023/10/13 12:14:17;;;;;;;7.53;3.60;;;28.50;46.10;;;;;;5048621;28;20461;-89
2023/10/13 12:16:48;;;;;;;4.47;3.20;;;28.50;45.20;;;;;;5051884;28;20446;-89
2023/10/13 12:19:17;;;;;;;5.77;3.63;;;28.60;45.50;;;;;;5048439;28;20472;-89
2023/10/13 12:21:44;;;;;;;7.50;3.47;;;28.40;45.50;;;;;;5049508;28;20538;-89
2023/10/13 12:24:22;;;;;;;5.57;3.27;;;28.40;45.60;;;;;;5055445;28;20470;-89
2023/10/13 12:26:55;;;;;;;7.87;3.53;;;28.50;45.10;;;;;;5044987;28;20845;-88
2023/10/13 12:29:23;;;;;;;5.17;3.83;;;28.40;45.30;;;;;;5047898;28;20454;-88
2023/10/13 12:32:31;;;;;;;4.20;3.33;;;28.50;45.70;;;;;;5044194;28;20495;-88
2023/10/13 12:51:21;;;;;;;5.70;3.57;;;28.80;44.60;;;;;;5048839;28;20493;-89
2023/10/13 12:53:51;;;;;;;7.50;3.80;;;28.90;44.70;;;;;;5047094;28;20961;-88
2023/10/13 12:56:17;;;;;;;6.10;3.80;;;29.10;45.10;;;;;;5046055;28;20482;-88
2023/10/13 12:58:52;;;;;;;5.40;3.63;;;29.10;45.40;;;;;;5043412;28;20968;-88
2023/10/13 13:01:21;;;;;;;3.90;3.50;;;29.10;45.20;;;;;;5048680;28;20480;-88
2023/10/13 13:03:51;;;;;;;4.70;3.67;;;29.80;45.00;;;;;;5047871;28;20459;-89
2023/10/13 13:06:24;;;;;;;7.00;3.40;;;28.90;44.20;;;;;;5059237;28;20477;-88
2023/10/13 13:08:54;;;;;;;5.50;3.37;;;29.10;44.50;;;;;;5067984;28;20527;-88
2023/10/13 13:11:20;;;;;;;4.70;3.80;;;28.90;45.00;;;;;;5062718;28;20465;-88
2023/10/13 13:13:46;;;;;;;3.90;3.10;;;29.40;45.00;;;;;;5048810;28;20474;-88
2023/10/13 13:16:18;;;;;;;6.60;3.67;;;29.10;44.60;;;;;;5061483;28;20451;-89
2023/10/13 13:18:47;;;;;;;5.77;3.73;;;29.40;45.10;;;;;;5059477;28;20468;-89
2023/10/13 13:21:19;;;;;;;6.37;3.80;;;28.90;44.50;;;;;;5061808;28;20443;-89
2023/10/13 13:23:45;;;;;;;4.43;3.47;;;28.90;44.30;;;;;;5061168;28;20915;-88
2023/10/13 13:26:17;;;;;;;5.63;3.40;;;28.90;43.70;;;;;;5052377;28;20526;-89
2023/10/13 13:28:50;;;;;;;6.17;3.50;;;28.90;42.90;;;;;;5048226;28;20454;-89
2023/10/13 13:31:29;;;;;;;3.80;3.30;;;29.10;43.00;;;;;;5058233;28;20439;-89
2023/10/13 13:33:55;;;;;;;4.90;3.70;;;29.10;42.10;;;;;;5051459;28;20987;-87
2023/10/13 13:36:22;;;;;;;5.47;3.60;;;29.30;42.00;;;;;;5054129;28;20824;-88
2023/10/13 13:38:54;;;;;;;4.67;2.97;;;29.30;41.90;;;;;;5051476;28;20469;-88
2023/10/13 13:41:20;;;;;;;6.73;3.40;;;29.10;41.60;;;;;;5053211;28;20455;-88
2023/10/13 13:46:19;;;;;;;7.47;4.40;;;29.10;41.00;;;;;;5049239;28;20482;-88
2023/10/13 13:48:48;;;;;;;5.67;3.60;;;29.10;41.80;;;;;;5047618;28;20455;-89
2023/10/13 13:51:19;;;;;;;7.33;4.10;;;29.10;41.00;;;;;;5035962;28;20448;-91
2023/10/13 13:53:48;;;;;;;7.17;4.93;;;29.30;41.70;;;;;;5052568;28;20478;-90
2023/10/13 13:56:16;;;;;;;5.77;3.83;;;29.40;41.50;;;;;;5047927;28;20457;-89
2023/10/13 13:59:06;;;;;;;6.27;3.50;;;29.10;41.60;;;;;;5049509;28;21138;-89
2023/10/13 14:01:37;;;;;;;6.63;3.90;;;29.30;41.60;;;;;;5036878;28;20984;-89
2023/10/13 14:04:06;;;;;;;8.60;3.70;;;29.10;41.70;;;;;;5050173;28;20570;-89
2023/10/13 14:06:34;;;;;;;8.33;4.33;;;29.00;41.40;;;;;;5047025;28;20471;-89
2023/10/13 14:09:03;;;;;;;4.40;3.13;;;29.50;42.10;;;;;;5068960;28;20436;-90
2023/10/13 14:14:28;;;;;;;5.27;3.20;;;29.30;41.90;;;;;;5071703;28;20469;-90
2023/10/13 14:17:02;;;;;;;4.17;2.93;;;29.30;40.60;;;;;;5072873;28;20488;-90
2023/10/13 14:19:28;;;;;;;4.87;2.87;;;29.00;41.70;;;;;;5051632;28;20448;-90
2023/10/13 14:21:58;;;;;;;5.03;3.20;;;31.20;43.50;;;;;;5053924;28;20453;-90
2023/10/13 14:24:33;;;;;;;7.20;3.97;;;28.90;40.80;;;;;;5053025;28;20189;-90
2023/10/13 14:27:07;;;;;;;6.33;3.33;;;30.40;42.80;;;;;;5061973;28;20530;-90
2023/10/13 14:29:34;;;;;;;8.03;2.87;;;28.90;41.00;;;;;;5064983;28;20986;-89
2023/10/13 14:31:59;;;;;;;3.73;3.07;;;29.00;40.70;;;;;;5061443;28;20928;-90
2023/10/13 14:34:26;;;;;;;3.40;3.00;;;28.80;41.70;;;;;;5038100;28;20561;-90
2023/10/13 14:36:54;;;;;;;5.97;3.47;;;28.70;41.90;;;;;;5060227;28;20204;-90
2023/10/13 14:39:20;;;;;;;5.67;3.47;;;28.70;41.60;;;;;;5056933;28;20492;-90
2023/10/13 14:41:52;;;;;;;4.13;3.17;;;28.70;42.60;;;;;;5054792;28;20436;-89
2023/10/13 14:44:18;;;;;;;3.57;3.20;;;29.70;42.30;;;;;;5052439;28;20537;-90
2023/10/13 14:46:43;;;;;;;4.63;3.33;;;30.30;42.50;;;;;;5058507;28;20473;-89
2023/10/13 14:49:14;;;;;;;3.60;2.73;;;28.80;41.80;;;;;;5054473;28;20222;-90
2023/10/13 14:51:39;;;;;;;4.57;3.37;;;28.50;41.10;;;;;;5058607;28;20187;-90
2023/10/13 14:54:14;;;;;;;6.10;2.93;;;29.30;42.00;;;;;;5066086;28;20445;-90
2023/10/13 14:56:43;;;;;;;5.57;3.20;;;28.60;41.00;;;;;;5069356;28;20205;-89
2023/10/13 14:59:16;;;;;;;3.20;2.67;;;28.60;40.90;;;;;;5060484;28;20450;-90
2023/10/13 15:01:42;;;;;;;4.87;2.90;;;28.60;39.20;;;;;;5047731;28;20448;-90
2023/10/13 15:04:09;;;;;;;3.27;2.47;;;30.60;39.70;;;;;;5063318;28;20466;-90
2023/10/13 15:06:34;;;;;;;4.47;2.57;;;29.50;40.50;;;;;;5064642;28;20464;-90
2023/10/13 15:09:03;;;;;;;4.20;3.13;;;30.60;41.10;;;;;;5065917;28;20424;-90
2023/10/13 15:11:40;;;;;;;3.47;2.90;;;30.70;40.30;;;;;;5071699;28;20302;-90
2023/10/13 15:14:09;;;;;;;3.87;2.73;;;30.20;39.50;;;;;;5069871;28;20505;-90
2023/10/13 15:16:37;;;;;;;4.80;2.63;;;28.50;39.90;;;;;;5072266;28;20456;-90
2023/10/13 15:19:06;;;;;;;3.17;2.87;;;28.70;40.90;;;;;;5054587;28;20470;-90
2023/10/13 21:30:28;;;;;;;3.33;2.93;;;22.50;49.40;;;;;;2030346;23;20756;-95
2023/10/13 21:32:57;;;;;;;7.23;2.60;;;22.50;49.20;;;;;;4958477;28;20514;-89
2023/10/13 21:35:26;;;;;;;4.60;2.30;;;24.20;50.90;;;;;;4951231;28;20444;-89
2023/10/13 21:37:58;;;;;;;3.20;2.10;;;23.40;50.30;;;;;;4943628;28;20441;-89
2023/10/13 21:40:29;;;;;;;4.90;2.50;;;23.90;50.30;;;;;;4944520;28;20443;-89
2023/10/13 21:42:57;;;;;;;3.40;3.10;;;24.70;50.90;;;;;;4950883;28;20566;-89
2023/10/13 21:45:23;;;;;;;4.17;2.43;;;24.80;50.80;;;;;;4953590;28;20506;-89
2023/10/13 21:47:50;;;;;;;2.87;2.47;;;23.30;50.00;;;;;;4965956;28;20443;-89
2023/10/13 21:50:16;;;;;;;2.80;2.40;;;23.40;49.50;;;;;;4971530;28;20456;-89
2023/10/13 21:52:45;;;;;;;3.13;2.43;;;22.70;49.00;;;;;;4949982;28;20468;-89
2023/10/13 21:55:15;;;;;;;4.27;2.53;;;23.40;49.60;;;;;;4948442;28;20456;-89
2023/10/13 21:57:46;;;;;;;4.43;2.50;;;23.40;49.60;;;;;;4942870;28;20564;-89
2023/10/13 22:00:59;;;;;;;4.87;2.57;;;23.30;50.00;;;;;;4950103;28;20456;-89
2023/10/13 22:03:07;;;;;;;3.20;2.90;;;22.70;49.30;;;;;;4945330;28;20468;-89
2023/10/13 22:05:35;;;;;;;2.50;2.30;;;22.40;48.70;;;;;;4949528;28;20961;-89
2023/10/13 22:08:02;;;;;;;3.17;2.40;;;22.70;49.70;;;;;;4949312;28;20550;-89
2023/10/13 22:10:27;;;;;;;3.07;2.40;;;22.30;48.40;;;;;;4949891;28;20456;-89
2023/10/13 22:12:56;;;;;;;4.30;3.10;;;22.60;48.60;;;;;;4949017;28;20815;-89
2023/10/13 22:15:23;;;;;;;3.53;2.60;;;23.00;49.10;;;;;;4949913;28;20205;-89
2023/10/13 22:17:51;;;;;;;3.80;2.70;;;22.90;49.00;;;;;;4950117;28;20452;-89
2023/10/13 22:20:17;;;;;;;4.23;2.40;;;22.90;48.90;;;;;;4948624;28;20466;-89
2023/10/13 22:22:43;;;;;;;2.57;2.27;;;22.70;48.80;;;;;;4952675;28;20472;-89
2023/10/13 22:25:13;;;;;;;8.40;7.13;;;23.70;49.70;;;;;;4950191;28;20452;-89
2023/10/13 22:27:42;;;;;;;4.40;3.03;;;24.40;50.30;;;;;;4948198;28;20453;-89
2023/10/13 22:30:23;;;;;;;4.40;2.77;;;22.90;49.30;;;;;;4952378;28;20527;-89
2023/10/13 22:32:50;;;;;;;3.13;2.87;;;22.70;49.40;;;;;;4950593;28;20815;-89
2023/10/13 22:35:20;;;;;;;3.13;2.50;;;22.70;49.50;;;;;;4955226;28;20586;-89
2023/10/13 22:37:48;;;;;;;4.47;3.17;;;23.30;50.10;;;;;;4948587;28;20454;-89
2023/10/13 22:40:15;;;;;;;4.83;2.30;;;22.60;49.70;;;;;;4955109;28;20451;-89
2023/10/13 22:42:43;;;;;;;3.13;2.83;;;22.70;50.00;;;;;;4952574;28;20460;-89
2023/10/13 22:45:17;;;;;;;4.47;3.03;;;22.40;50.80;;;;;;4953556;28;20507;-89
2023/10/13 22:47:44;;;;;;;3.00;2.70;;;22.80;50.20;;;;;;4954943;28;20453;-89
2023/10/13 22:50:12;;;;;;;8.20;2.87;;;23.50;50.80;;;;;;4954586;28;20440;-89
2023/10/13 22:52:43;;;;;;;3.33;2.70;;;23.30;50.90;;;;;;4954454;28;20468;-89
2023/10/13 22:55:21;;;;;;;3.93;2.90;;;23.40;50.60;;;;;;4955902;28;20481;-89
2023/10/13 22:57:57;;;;;;;5.40;2.63;;;24.50;51.60;;;;;;4937849;28;21287;-89
2023/10/13 23:03:12;;;;;;;2.87;2.67;;;23.00;50.50;;;;;;4957000;28;20459;-88
2023/10/13 23:05:51;;;;;;;3.67;2.80;;;24.50;52.00;;;;;;4952057;28;20476;-88
2023/10/13 23:11:15;;;;;;;5.87;3.30;;;23.50;52.00;;;;;;4956905;28;20436;-89